createdAt,value
2022-07-30T00:00:02.299Z,16.49
2022-07-30T00:01:02.329Z,16.49
2022-07-30T00:02:02.293Z,16.56
2022-07-30T00:03:02.275Z,16.47
2022-07-30T00:04:02.938Z,16.51
2022-07-30T00:05:02.296Z,16.51
2022-07-30T00:06:02.254Z,16.50
2022-07-30T00:07:02.912Z,16.42
2022-07-30T00:08:02.236Z,16.56
2022-07-30T00:09:02.229Z,16.54
2022-07-30T00:10:02.220Z,16.47
2022-07-30T00:11:02.209Z,16.46
2022-07-30T00:12:02.214Z,16.42
2022-07-30T00:13:02.197Z,16.39
2022-07-30T00:14:02.207Z,16.39
2022-07-30T00:15:02.183Z,16.38
2022-07-30T00:16:02.171Z,16.23
2022-07-30T00:17:02.559Z,16.31
2022-07-30T00:18:02.169Z,16.36
2022-07-30T00:19:02.146Z,16.28
2022-07-30T00:20:02.937Z,16.32
2022-07-30T00:21:02.136Z,16.26
2022-07-30T00:22:02.125Z,16.32
2022-07-30T00:23:02.126Z,16.28
2022-07-30T00:24:02.479Z,16.26
2022-07-30T00:25:02.112Z,16.12
2022-07-30T00:26:02.087Z,16.26
2022-07-30T00:27:02.527Z,16.16
2022-07-30T00:28:02.082Z,16.24
2022-07-30T00:29:02.063Z,16.24
2022-07-30T00:30:02.061Z,16.29
2022-07-30T00:31:02.114Z,16.33
2022-07-30T00:33:02.076Z,16.31
2022-07-30T00:34:02.065Z,16.33
2022-07-30T00:35:02.075Z,16.31
2022-07-30T00:36:03.143Z,16.21
2022-07-30T00:37:03.592Z,16.12
2022-07-30T00:38:03.133Z,16.15
2022-07-30T00:39:03.119Z,16.24
2022-07-30T00:40:03.106Z,16.10
2022-07-30T00:41:03.097Z,16.16
2022-07-30T00:42:03.093Z,16.13
2022-07-30T00:43:03.081Z,16.09
2022-07-30T00:44:03.078Z,16.10
2022-07-30T00:45:03.067Z,16.17
2022-07-30T00:46:03.122Z,16.13
2022-07-30T00:47:03.617Z,16.12
2022-07-30T00:48:03.037Z,16.13
2022-07-30T00:49:03.079Z,16.17
2022-07-30T00:50:04.019Z,16.10
2022-07-30T00:51:03.020Z,16.08
2022-07-30T00:52:03.023Z,16.13
2022-07-30T00:53:03.009Z,16.17
2022-07-30T00:54:03.513Z,16.17
2022-07-30T00:55:02.997Z,16.13
2022-07-30T00:56:03.032Z,16.20
2022-07-30T00:57:03.383Z,16.13
2022-07-30T00:58:02.966Z,16.13
2022-07-30T00:59:02.978Z,16.05
2022-07-30T01:00:02.948Z,16.15
2022-07-30T01:01:02.994Z,16.05
2022-07-30T01:02:02.957Z,16.21
2022-07-30T01:03:02.921Z,16.15
2022-07-30T01:04:02.915Z,16.15
2022-07-30T01:05:02.903Z,16.31
2022-07-30T01:06:02.906Z,16.23
2022-07-30T01:07:03.222Z,16.29
2022-07-30T01:08:02.879Z,16.24
2022-07-30T01:09:02.877Z,16.23
2022-07-30T01:10:02.873Z,16.23
2022-07-30T01:11:02.864Z,16.21
2022-07-30T01:12:02.850Z,16.20
2022-07-30T01:13:02.847Z,16.29
2022-07-30T01:14:02.837Z,16.09
2022-07-30T01:15:02.832Z,16.09
2022-07-30T01:16:02.860Z,16.16
2022-07-30T01:17:03.188Z,16.04
2022-07-30T01:18:02.804Z,16.05
2022-07-30T01:19:02.792Z,15.97
2022-07-30T01:20:02.783Z,16.01
2022-07-30T01:21:02.771Z,15.98
2022-07-30T01:22:02.767Z,15.91
2022-07-30T01:23:02.773Z,15.95
2022-07-30T01:24:02.753Z,16.04
2022-07-30T01:25:02.746Z,15.88
2022-07-30T01:26:02.739Z,15.80
2022-07-30T01:27:03.095Z,15.82
2022-07-30T01:28:02.772Z,15.86
2022-07-30T01:29:02.715Z,15.92
2022-07-30T01:30:02.712Z,15.90
2022-07-30T01:31:02.701Z,15.92
2022-07-30T01:32:02.750Z,15.83
2022-07-30T01:33:02.683Z,15.90
2022-07-30T01:34:02.672Z,15.83
2022-07-30T01:35:02.667Z,15.88
2022-07-30T01:36:02.660Z,15.88
2022-07-30T01:37:02.999Z,15.73
2022-07-30T01:38:02.643Z,15.79
2022-07-30T01:39:02.635Z,15.79
2022-07-30T01:40:02.627Z,15.75
2022-07-30T01:41:02.622Z,15.77
2022-07-30T01:42:02.610Z,15.86
2022-07-30T01:43:02.671Z,15.82
2022-07-30T01:44:02.600Z,15.84
2022-07-30T01:45:03.528Z,15.82
2022-07-30T01:46:02.627Z,15.79
2022-07-30T01:47:03.087Z,15.70
2022-07-30T01:48:02.559Z,15.70
2022-07-30T01:49:02.605Z,15.68
2022-07-30T01:50:02.542Z,15.65
2022-07-30T01:51:02.541Z,15.64
2022-07-30T01:52:02.524Z,15.57
2022-07-30T01:53:02.515Z,15.68
2022-07-30T01:54:02.513Z,15.57
2022-07-30T01:55:02.505Z,15.51
2022-07-30T01:56:02.502Z,15.57
2022-07-30T01:57:02.984Z,15.58
2022-07-30T01:58:02.477Z,15.65
2022-07-30T01:59:02.477Z,15.55
2022-07-30T02:00:02.470Z,15.57
2022-07-30T02:01:02.502Z,15.65
2022-07-30T02:02:02.455Z,15.64
2022-07-30T02:03:02.441Z,15.54
2022-07-30T02:04:02.517Z,15.51
2022-07-30T02:05:02.468Z,15.54
2022-07-30T02:06:02.425Z,15.52
2022-07-30T02:07:02.789Z,15.49
2022-07-30T02:08:02.408Z,15.52
2022-07-30T02:09:02.397Z,15.46
2022-07-30T02:10:03.418Z,15.62
2022-07-30T02:11:02.378Z,15.52
2022-07-30T02:12:02.375Z,15.59
2022-07-30T02:13:02.358Z,15.62
2022-07-30T02:14:02.356Z,15.70
2022-07-30T02:15:02.340Z,15.72
2022-07-30T02:16:02.390Z,15.76
2022-07-30T02:17:02.877Z,15.80
2022-07-30T02:18:02.327Z,15.72
2022-07-30T02:19:02.315Z,15.75
2022-07-30T02:20:04.759Z,15.72
2022-07-30T02:21:07.544Z,15.70
2022-07-30T02:22:03.287Z,15.72
2022-07-30T02:23:02.286Z,15.79
2022-07-30T02:24:03.273Z,15.73
2022-07-30T02:25:02.268Z,15.84
2022-07-30T02:26:02.252Z,15.76
2022-07-30T02:27:02.627Z,15.90
2022-07-30T02:28:02.246Z,15.90
2022-07-30T02:29:02.234Z,15.91
2022-07-30T02:30:02.220Z,15.88
2022-07-30T02:31:02.289Z,15.83
2022-07-30T02:32:03.971Z,15.94
2022-07-30T02:33:02.202Z,15.92
2022-07-30T02:34:02.195Z,15.98
2022-07-30T02:35:02.182Z,16.01
2022-07-30T02:36:02.173Z,15.92
2022-07-30T02:37:02.731Z,15.97
2022-07-30T02:38:02.162Z,16.00
2022-07-30T02:39:02.152Z,16.10
2022-07-30T02:40:02.140Z,16.04
2022-07-30T02:41:02.153Z,15.92
2022-07-30T02:42:02.111Z,15.88
2022-07-30T02:43:03.120Z,15.80
2022-07-30T02:44:02.115Z,15.75
2022-07-30T02:45:02.099Z,15.82
2022-07-30T02:46:02.090Z,15.77
2022-07-30T02:47:04.686Z,15.75
2022-07-30T02:48:02.075Z,15.67
2022-07-30T02:49:02.104Z,15.73
2022-07-30T02:50:02.972Z,15.67
2022-07-30T02:51:02.051Z,15.68
2022-07-30T02:52:02.064Z,15.64
2022-07-30T02:53:02.041Z,15.57
2022-07-30T02:54:02.029Z,15.64
2022-07-30T02:55:02.014Z,15.62
2022-07-30T02:56:02.012Z,15.57
2022-07-30T02:57:02.348Z,15.61
2022-07-30T02:58:01.991Z,15.64
2022-07-30T02:59:01.982Z,15.61
2022-07-30T03:00:01.975Z,15.64
2022-07-30T03:01:03.241Z,15.65
2022-07-30T03:02:01.997Z,15.59
2022-07-30T03:03:02.012Z,15.68
2022-07-30T03:04:01.943Z,15.75
2022-07-30T03:05:01.933Z,15.90
2022-07-30T03:06:01.928Z,15.79
2022-07-30T03:07:07.918Z,15.75
2022-07-30T03:08:03.909Z,15.90
2022-07-30T03:09:01.898Z,15.86
2022-07-30T03:10:01.888Z,15.86
2022-07-30T03:11:01.904Z,15.88
2022-07-30T03:12:01.873Z,15.98
2022-07-30T03:13:01.870Z,15.90
2022-07-30T03:14:01.856Z,15.98
2022-07-30T03:15:01.850Z,16.04
2022-07-30T03:16:01.899Z,16.15
2022-07-30T03:17:02.318Z,16.16
2022-07-30T03:18:01.824Z,16.12
2022-07-30T03:19:01.830Z,16.05
2022-07-30T03:20:01.809Z,16.10
2022-07-30T03:21:01.801Z,16.04
2022-07-30T03:22:01.796Z,16.02
2022-07-30T03:23:01.786Z,15.95
2022-07-30T03:24:01.774Z,15.88
2022-07-30T03:25:01.766Z,15.90
2022-07-30T03:26:01.759Z,15.80
2022-07-30T03:27:02.232Z,15.95
2022-07-30T03:28:01.749Z,16.12
2022-07-30T03:29:01.737Z,16.00
2022-07-30T03:30:02.598Z,16.02
2022-07-30T03:31:01.795Z,16.12
2022-07-30T03:32:01.726Z,16.17
2022-07-30T03:33:01.712Z,16.15
2022-07-30T03:34:01.699Z,16.17
2022-07-30T03:35:06.165Z,16.04
2022-07-30T03:36:03.679Z,16.12
2022-07-30T03:37:01.989Z,16.04
2022-07-30T03:38:01.718Z,16.00
2022-07-30T03:39:01.655Z,16.05
2022-07-30T03:40:02.565Z,16.00
2022-07-30T03:41:01.645Z,16.00
2022-07-30T03:42:01.660Z,15.97
2022-07-30T03:43:01.630Z,16.12
2022-07-30T03:44:01.620Z,15.92
2022-07-30T03:45:01.611Z,16.01
2022-07-30T03:46:01.824Z,15.95
2022-07-30T03:47:01.832Z,16.08
2022-07-30T03:48:01.594Z,15.90
2022-07-30T03:49:01.641Z,15.83
2022-07-30T03:50:01.581Z,15.97
2022-07-30T03:51:01.561Z,15.95
2022-07-30T03:52:01.555Z,16.02
2022-07-30T03:53:01.545Z,16.00
2022-07-30T03:54:01.547Z,15.91
2022-07-30T03:55:01.531Z,15.92
2022-07-30T03:56:01.523Z,15.86
2022-07-30T03:57:01.991Z,15.76
2022-07-30T03:58:01.502Z,15.75
2022-07-30T03:59:01.501Z,15.72
2022-07-30T04:00:01.488Z,15.76
2022-07-30T04:01:01.485Z,15.86
2022-07-30T04:02:06.787Z,15.79
2022-07-30T04:03:02.466Z,15.84
2022-07-30T04:04:01.529Z,15.86
2022-07-30T04:05:01.455Z,15.91
2022-07-30T04:06:01.438Z,15.77
2022-07-30T04:07:01.912Z,15.83
2022-07-30T04:08:01.424Z,15.95
2022-07-30T04:09:01.413Z,15.84
2022-07-30T04:10:01.413Z,15.91
2022-07-30T04:11:01.405Z,15.90
2022-07-30T04:12:01.393Z,15.86
2022-07-30T04:13:01.389Z,15.80
2022-07-30T04:14:01.378Z,15.88
2022-07-30T04:15:01.366Z,15.88
2022-07-30T04:16:37.388Z,15.94
2022-07-30T04:17:02.904Z,15.91
2022-07-30T04:18:01.347Z,15.97
2022-07-30T04:19:01.338Z,15.83
2022-07-30T04:20:01.330Z,15.94
2022-07-30T04:21:01.327Z,15.97
2022-07-30T04:22:01.311Z,15.91
2022-07-30T04:23:01.308Z,15.92
2022-07-30T04:24:04.336Z,15.92
2022-07-30T04:25:01.342Z,15.88
2022-07-30T04:26:01.286Z,15.86
2022-07-30T04:27:01.711Z,15.80
2022-07-30T04:28:03.524Z,15.94
2022-07-30T04:29:01.260Z,15.98
2022-07-30T04:30:01.264Z,15.92
2022-07-30T04:31:01.297Z,15.95
2022-07-30T04:32:01.233Z,16.08
2022-07-30T04:33:01.258Z,15.94
2022-07-30T04:34:04.454Z,16.01
2022-07-30T04:35:01.212Z,16.21
2022-07-30T04:36:01.218Z,16.09
2022-07-30T04:37:01.463Z,15.98
2022-07-30T04:38:01.186Z,16.12
2022-07-30T04:39:01.180Z,16.00
2022-07-30T04:40:01.171Z,16.09
2022-07-30T04:41:01.163Z,15.92
2022-07-30T04:42:01.165Z,15.98
2022-07-30T04:43:01.162Z,15.97
2022-07-30T04:44:01.141Z,15.91
2022-07-30T04:45:01.131Z,15.94
2022-07-30T04:46:01.138Z,15.98
2022-07-30T04:47:01.481Z,15.91
2022-07-30T04:48:01.113Z,15.82
2022-07-30T04:49:01.140Z,15.97
2022-07-30T04:50:01.092Z,15.88
2022-07-30T04:51:01.110Z,15.91
2022-07-30T04:52:01.083Z,15.88
2022-07-30T04:53:01.068Z,15.94
2022-07-30T04:54:01.065Z,15.97
2022-07-30T04:55:01.053Z,16.08
2022-07-30T04:56:01.060Z,15.92
2022-07-30T04:57:01.059Z,15.88
2022-07-30T04:58:02.125Z,15.92
2022-07-30T04:59:01.019Z,16.01
2022-07-30T05:00:01.014Z,15.95
2022-07-30T05:01:01.020Z,15.90
2022-07-30T05:02:01.049Z,15.84
2022-07-30T05:03:00.987Z,15.82
2022-07-30T05:04:00.979Z,15.88
2022-07-30T05:05:01.022Z,15.91
2022-07-30T05:06:00.975Z,15.83
2022-07-30T05:07:01.090Z,15.82
2022-07-30T05:08:00.947Z,15.80
2022-07-30T05:09:00.952Z,15.68
2022-07-30T05:10:00.936Z,15.77
2022-07-30T05:11:00.935Z,15.84
2022-07-30T05:12:01.046Z,15.84
2022-07-30T05:13:00.914Z,15.79
2022-07-30T05:14:00.906Z,15.72
2022-07-30T05:15:00.908Z,15.82
2022-07-30T05:16:00.935Z,15.90
2022-07-30T05:17:01.094Z,15.94
2022-07-30T05:18:00.872Z,15.95
2022-07-30T05:19:00.857Z,15.92
2022-07-30T05:20:02.041Z,15.97
2022-07-30T05:21:00.849Z,16.08
2022-07-30T05:22:06.127Z,16.02
2022-07-30T05:23:02.837Z,16.12
2022-07-30T05:24:00.830Z,16.10
2022-07-30T05:25:00.815Z,16.32
2022-07-30T05:26:00.813Z,16.20
2022-07-30T05:27:01.075Z,16.31
2022-07-30T05:28:00.800Z,16.31
2022-07-30T05:29:00.788Z,16.33
2022-07-30T05:30:00.779Z,16.28
2022-07-30T05:31:00.815Z,16.32
2022-07-30T05:32:03.495Z,16.20
2022-07-30T05:33:01.349Z,16.36
2022-07-30T05:34:03.381Z,16.28
2022-07-30T05:35:01.739Z,16.51
2022-07-30T05:36:00.727Z,16.46
2022-07-30T05:37:00.925Z,16.50
2022-07-30T05:38:00.707Z,16.57
2022-07-30T05:39:00.708Z,16.58
2022-07-30T05:40:03.342Z,16.57
2022-07-30T05:41:00.685Z,16.64
2022-07-30T05:42:00.677Z,16.61
2022-07-30T05:43:00.687Z,16.74
2022-07-30T05:44:00.693Z,16.74
2022-07-30T05:45:00.653Z,16.64
2022-07-30T05:46:00.717Z,16.65
2022-07-30T05:47:00.888Z,16.69
2022-07-30T05:48:00.634Z,16.65
2022-07-30T05:49:00.671Z,16.76
2022-07-30T05:50:04.841Z,16.76
2022-07-30T05:51:01.607Z,16.78
2022-07-30T05:52:00.600Z,16.87
2022-07-30T05:53:00.584Z,16.91
2022-07-30T05:54:00.580Z,16.90
2022-07-30T05:55:00.568Z,17.01
2022-07-30T05:56:00.618Z,17.09
2022-07-30T05:57:00.825Z,17.02
2022-07-30T05:58:00.556Z,17.09
2022-07-30T05:59:00.540Z,17.14
2022-07-30T06:00:00.531Z,17.14
2022-07-30T06:01:00.530Z,17.11
2022-07-30T06:02:00.590Z,16.90
2022-07-30T06:03:00.509Z,16.94
2022-07-30T06:04:00.535Z,17.01
2022-07-30T06:05:00.590Z,17.04
2022-07-30T06:06:00.490Z,17.05
2022-07-30T06:07:00.835Z,17.12
2022-07-30T06:08:00.474Z,17.06
2022-07-30T06:09:00.475Z,17.20
2022-07-30T06:10:00.503Z,17.11
2022-07-30T06:11:00.443Z,17.23
2022-07-30T06:12:00.436Z,17.20
2022-07-30T06:13:00.433Z,17.16
2022-07-30T06:14:00.420Z,17.29
2022-07-30T06:15:00.410Z,17.29
2022-07-30T06:16:00.459Z,17.23
2022-07-30T06:17:00.754Z,17.27
2022-07-30T06:18:02.275Z,17.33
2022-07-30T06:19:00.386Z,17.42
2022-07-30T06:20:00.374Z,17.59
2022-07-30T06:21:00.367Z,17.63
2022-07-30T06:22:05.708Z,17.65
2022-07-30T06:23:01.349Z,17.80
2022-07-30T06:24:00.344Z,17.71
2022-07-30T06:25:00.334Z,17.78
2022-07-30T06:26:00.325Z,17.83
2022-07-30T06:27:00.662Z,17.94
2022-07-30T06:28:15.408Z,17.92
2022-07-30T06:29:02.302Z,17.98
2022-07-30T06:30:00.302Z,18.05
2022-07-30T06:31:00.383Z,18.07
2022-07-30T06:32:00.277Z,18.04
2022-07-30T06:33:00.279Z,18.18
2022-07-30T06:34:00.257Z,18.31
2022-07-30T06:35:04.518Z,18.37
2022-07-30T06:36:01.245Z,18.49
2022-07-30T06:37:00.489Z,18.52
2022-07-30T06:38:07.233Z,18.60
2022-07-30T06:39:01.226Z,18.75
2022-07-30T06:40:00.210Z,18.99
2022-07-30T06:41:02.576Z,19.04
2022-07-30T06:42:01.197Z,19.27
2022-07-30T06:43:00.204Z,19.30
2022-07-30T06:44:00.188Z,19.49
2022-07-30T06:45:00.169Z,19.47
2022-07-30T06:46:00.278Z,19.71
2022-07-30T06:47:05.280Z,19.70
2022-07-30T06:48:02.141Z,19.79
2022-07-30T06:49:00.207Z,19.96
2022-07-30T06:50:00.159Z,20.03
2022-07-30T06:51:00.139Z,20.14
2022-07-30T06:52:00.133Z,20.34
2022-07-30T06:53:00.106Z,20.31
2022-07-30T06:54:00.110Z,20.52
2022-07-30T06:55:00.095Z,20.66
2022-07-30T06:56:00.612Z,20.88
2022-07-30T06:57:00.492Z,20.96
2022-07-30T06:58:00.069Z,20.80
2022-07-30T06:59:00.070Z,20.78
2022-07-30T07:00:00.062Z,20.99
2022-07-30T07:01:00.177Z,20.99
2022-07-30T07:02:00.032Z,20.95
2022-07-30T07:03:00.027Z,20.77
2022-07-30T07:04:00.051Z,20.99
2022-07-30T07:05:00.020Z,21.20
2022-07-30T07:06:00.001Z,21.21
2022-07-30T07:07:00.194Z,21.29
2022-07-30T07:08:00.993Z,21.36
2022-07-30T07:08:59.971Z,21.51
2022-07-30T07:09:59.975Z,21.64
2022-07-30T07:10:59.960Z,21.72
2022-07-30T07:11:59.948Z,21.85
2022-07-30T07:12:59.980Z,21.80
2022-07-30T07:14:04.360Z,21.92
2022-07-30T07:15:00.926Z,22.06
2022-07-30T07:15:59.924Z,21.93
2022-07-30T07:17:00.038Z,21.92
2022-07-30T07:17:59.904Z,21.91
2022-07-30T07:18:59.902Z,21.99
2022-07-30T07:20:02.289Z,21.93
2022-07-30T07:20:59.883Z,21.91
2022-07-30T07:21:59.868Z,21.91
2022-07-30T07:22:59.854Z,22.04
2022-07-30T07:24:00.863Z,22.26
2022-07-30T07:24:59.845Z,22.62
2022-07-30T07:25:59.844Z,22.69
2022-07-30T07:26:59.993Z,23.05
2022-07-30T07:28:11.044Z,23.27
2022-07-30T07:29:05.003Z,23.51
2022-07-30T07:30:04.919Z,23.73
2022-07-30T07:31:00.841Z,23.91
2022-07-30T07:32:05.759Z,24.08
2022-07-30T07:33:00.777Z,24.10
2022-07-30T07:33:59.778Z,24.05
2022-07-30T07:34:59.771Z,24.18
2022-07-30T07:35:59.752Z,24.18
2022-07-30T07:36:59.997Z,24.20
2022-07-30T07:37:59.752Z,24.11
2022-07-30T07:38:59.736Z,24.05
2022-07-30T07:39:59.771Z,24.05
2022-07-30T07:40:59.715Z,24.10
2022-07-30T07:41:59.707Z,24.08
2022-07-30T07:42:59.701Z,24.13
2022-07-30T07:43:59.698Z,24.28
2022-07-30T07:44:59.696Z,24.26
2022-07-30T07:45:59.721Z,24.33
2022-07-30T07:47:00.111Z,24.50
2022-07-30T07:47:59.666Z,24.51
2022-07-30T07:48:59.720Z,24.63
2022-07-30T07:50:00.178Z,24.81
2022-07-30T07:51:00.529Z,24.88
2022-07-30T07:52:00.626Z,24.78
2022-07-30T07:52:59.621Z,24.63
2022-07-30T07:54:19.034Z,24.60
2022-07-30T07:55:02.183Z,24.74
2022-07-30T07:55:59.631Z,24.93
2022-07-30T07:57:01.474Z,25.04
2022-07-30T07:57:59.603Z,24.93
2022-07-30T07:58:59.589Z,24.98
2022-07-30T07:59:59.550Z,24.98
2022-07-30T08:00:59.575Z,25.01
2022-07-30T08:01:59.577Z,24.96
2022-07-30T08:02:59.532Z,24.84
2022-07-30T08:03:59.532Z,24.47
2022-07-30T08:04:59.546Z,24.24
2022-07-30T08:06:06.157Z,24.08
2022-07-30T08:07:00.726Z,23.87
2022-07-30T08:07:59.477Z,23.63
2022-07-30T08:09:00.485Z,23.50
2022-07-30T08:09:59.480Z,23.46
2022-07-30T08:11:00.088Z,23.58
2022-07-30T08:12:00.100Z,23.58
2022-07-30T08:12:59.447Z,23.69
2022-07-30T08:13:59.440Z,23.63
2022-07-30T08:14:59.439Z,23.58
2022-07-30T08:15:59.458Z,23.46
2022-07-30T08:16:59.499Z,23.55
2022-07-30T08:17:59.414Z,23.36
2022-07-30T08:18:59.407Z,23.03
2022-07-30T08:19:59.403Z,22.68
2022-07-30T08:20:59.393Z,22.22
2022-07-30T08:21:59.381Z,22.14
2022-07-30T08:22:59.370Z,22.00
2022-07-30T08:23:59.370Z,22.02
2022-07-30T08:24:59.371Z,22.07
2022-07-30T08:25:59.349Z,22.20
2022-07-30T08:27:00.532Z,21.96
2022-07-30T08:27:59.338Z,21.83
2022-07-30T08:28:59.337Z,21.98
2022-07-30T08:29:59.328Z,22.02
2022-07-30T08:31:02.184Z,22.20
2022-07-30T08:31:59.646Z,22.18
2022-07-30T08:32:59.297Z,22.22
2022-07-30T08:33:59.292Z,22.23
2022-07-30T08:34:59.275Z,22.33
2022-07-30T08:36:09.188Z,22.38
2022-07-30T08:37:01.265Z,22.47
2022-07-30T08:37:59.258Z,22.51
2022-07-30T08:38:59.251Z,22.68
2022-07-30T08:39:59.238Z,22.65
2022-07-30T08:40:59.239Z,22.78
2022-07-30T08:41:59.491Z,22.91
2022-07-30T08:42:59.223Z,23.05
2022-07-30T08:43:59.201Z,23.08
2022-07-30T08:44:59.203Z,23.37
2022-07-30T08:45:59.190Z,23.40
2022-07-30T08:46:59.695Z,23.43
2022-07-30T08:47:59.170Z,23.54
2022-07-30T08:49:00.593Z,23.63
2022-07-30T08:50:00.193Z,23.65
2022-07-30T08:50:59.146Z,23.76
2022-07-30T08:51:59.310Z,23.86
2022-07-30T08:52:59.153Z,24.13
2022-07-30T08:53:59.133Z,24.17
2022-07-30T08:54:59.113Z,24.32
2022-07-30T08:55:59.116Z,24.35
2022-07-30T08:56:59.099Z,24.48
2022-07-30T08:57:59.103Z,24.63
2022-07-30T08:58:59.089Z,24.84
2022-07-30T09:00:01.257Z,25.06
2022-07-30T09:00:59.074Z,25.06
2022-07-30T09:01:59.443Z,25.10
2022-07-30T09:02:59.092Z,25.11
2022-07-30T09:03:59.072Z,25.26
2022-07-30T09:04:59.048Z,25.29
2022-07-30T09:05:59.024Z,25.29
2022-07-30T09:06:59.360Z,25.43
2022-07-30T09:07:59.012Z,25.32
2022-07-30T09:08:59.011Z,25.31
2022-07-30T09:09:58.998Z,25.26
2022-07-30T09:10:59.027Z,25.47
2022-07-30T09:11:58.981Z,25.62
2022-07-30T09:12:59.009Z,25.62
2022-07-30T09:13:58.977Z,25.48
2022-07-30T09:14:58.955Z,25.54
2022-07-30T09:15:58.954Z,25.33
2022-07-30T09:16:59.173Z,25.68
2022-07-30T09:17:58.932Z,26.00
2022-07-30T09:18:58.937Z,26.36
2022-07-30T09:19:58.916Z,26.59
2022-07-30T09:20:58.907Z,26.41
2022-07-30T09:21:58.898Z,25.93
2022-07-30T09:22:58.895Z,26.00
2022-07-30T09:23:58.894Z,25.90
2022-07-30T09:24:58.872Z,25.63
2022-07-30T09:25:58.869Z,25.68
2022-07-30T09:26:58.985Z,25.91
2022-07-30T09:27:58.854Z,25.60
2022-07-30T09:28:58.842Z,25.32
2022-07-30T09:29:58.837Z,25.16
2022-07-30T09:30:58.824Z,25.16
2022-07-30T09:31:59.282Z,25.23
2022-07-30T09:32:58.809Z,25.44
2022-07-30T09:33:58.814Z,25.28
2022-07-30T09:34:58.798Z,25.08
2022-07-30T09:35:58.795Z,24.99
2022-07-30T09:36:58.780Z,24.84
2022-07-30T09:38:02.950Z,24.86
2022-07-30T09:38:59.759Z,25.10
2022-07-30T09:39:59.186Z,25.38
2022-07-30T09:41:00.127Z,25.66
2022-07-30T09:42:00.186Z,25.75
2022-07-30T09:42:58.733Z,25.81
2022-07-30T09:43:58.720Z,25.73
2022-07-30T09:44:59.688Z,25.69
2022-07-30T09:45:58.705Z,25.58
2022-07-30T09:46:58.701Z,25.68
2022-07-30T09:47:58.698Z,25.77
2022-07-30T09:48:58.725Z,25.85
2022-07-30T09:50:01.723Z,25.88
2022-07-30T09:50:59.669Z,25.93
2022-07-30T09:51:58.658Z,25.51
2022-07-30T09:52:58.652Z,25.29
2022-07-30T09:53:58.644Z,25.22
2022-07-30T09:54:58.641Z,25.21
2022-07-30T09:55:58.635Z,25.16
2022-07-30T09:56:58.621Z,25.23
2022-07-30T09:57:58.698Z,25.08
2022-07-30T09:58:58.603Z,25.22
2022-07-30T09:59:59.843Z,25.28
2022-07-30T10:00:58.597Z,25.33
2022-07-30T10:02:00.922Z,25.59
2022-07-30T10:02:58.570Z,25.91
2022-07-30T10:03:58.549Z,25.95
2022-07-30T10:04:59.556Z,25.90
2022-07-30T10:05:58.550Z,26.05
2022-07-30T10:06:58.560Z,25.98
2022-07-30T10:07:58.528Z,25.99
2022-07-30T10:08:58.521Z,25.91
2022-07-30T10:09:58.512Z,25.90
2022-07-30T10:10:58.504Z,26.02
2022-07-30T10:11:59.868Z,26.15
2022-07-30T10:14:05.253Z,26.45
2022-07-30T10:15:06.272Z,26.62
2022-07-30T10:16:05.244Z,26.56
2022-07-30T10:17:06.330Z,26.53
2022-07-30T10:18:06.680Z,26.48
2022-07-30T10:19:07.143Z,26.48
2022-07-30T10:20:08.270Z,26.41
2022-07-30T10:21:06.289Z,26.52
2022-07-30T10:22:06.284Z,26.26
2022-07-30T10:23:08.798Z,26.13
2022-07-30T10:24:06.763Z,26.15
2022-07-30T10:25:07.254Z,26.15
2022-07-30T10:26:06.247Z,26.05
2022-07-30T10:27:06.582Z,25.91
2022-07-30T10:28:06.242Z,25.99
2022-07-30T10:29:06.232Z,25.96
2022-07-30T10:30:06.299Z,26.07
2022-07-30T10:31:08.273Z,26.07
2022-07-30T10:32:06.219Z,25.93
2022-07-30T10:33:06.206Z,25.87
2022-07-30T10:34:06.182Z,25.93
2022-07-30T10:35:06.177Z,25.75
2022-07-30T10:36:06.172Z,25.33
2022-07-30T10:37:06.561Z,25.21
2022-07-30T10:38:06.162Z,25.13
2022-07-30T10:39:06.152Z,24.96
2022-07-30T10:40:06.150Z,25.17
2022-07-30T10:41:06.140Z,25.29
2022-07-30T10:42:06.124Z,25.41
2022-07-30T10:43:06.121Z,25.51
2022-07-30T10:44:06.116Z,25.60
2022-07-30T10:45:06.724Z,25.81
2022-07-30T10:46:07.450Z,25.99
2022-07-30T10:47:07.346Z,26.00
2022-07-30T10:48:06.083Z,26.21
2022-07-30T10:49:06.097Z,26.22
2022-07-30T10:50:07.070Z,26.33
2022-07-30T10:51:06.092Z,26.00
2022-07-30T10:52:06.051Z,26.02
2022-07-30T10:53:06.041Z,25.90
2022-07-30T10:54:06.042Z,25.73
2022-07-30T10:55:07.026Z,25.54
2022-07-30T10:56:06.019Z,25.60
2022-07-30T10:57:06.009Z,25.73
2022-07-30T10:58:06.118Z,25.95
2022-07-30T10:59:07.706Z,26.09
2022-07-30T11:00:05.990Z,26.31
2022-07-30T11:01:05.979Z,26.33
2022-07-30T11:02:07.533Z,26.29
2022-07-30T11:03:14.074Z,26.41
2022-07-30T11:04:06.970Z,26.55
2022-07-30T11:05:06.644Z,26.62
2022-07-30T11:06:05.942Z,26.74
2022-07-30T11:07:05.935Z,26.60
2022-07-30T11:08:05.929Z,26.36
2022-07-30T11:09:05.930Z,25.93
2022-07-30T11:10:09.654Z,25.96
2022-07-30T11:11:19.315Z,25.77
2022-07-30T11:12:06.903Z,25.65
2022-07-30T11:13:05.899Z,25.60
2022-07-30T11:14:05.882Z,25.53
2022-07-30T11:15:06.620Z,25.48
2022-07-30T11:16:07.505Z,25.44
2022-07-30T11:17:05.929Z,25.50
2022-07-30T11:18:12.143Z,25.47
2022-07-30T11:20:11.818Z,25.46
2022-07-30T11:21:06.070Z,25.47
2022-07-30T11:22:06.663Z,25.65
2022-07-30T11:23:05.819Z,25.80
2022-07-30T11:24:05.816Z,25.77
2022-07-30T11:25:13.020Z,25.90
2022-07-30T11:26:07.795Z,26.05
2022-07-30T11:27:06.786Z,26.15
2022-07-30T11:28:05.783Z,26.38
2022-07-30T11:29:05.773Z,26.45
2022-07-30T11:30:05.782Z,26.38
2022-07-30T11:31:10.346Z,26.31
2022-07-30T11:32:07.003Z,26.21
2022-07-30T11:33:06.746Z,26.07
2022-07-30T11:34:05.727Z,25.95
2022-07-30T11:35:06.237Z,25.78
2022-07-30T11:36:05.717Z,25.50
2022-07-30T11:37:18.073Z,25.40
2022-07-30T11:38:06.952Z,25.31
2022-07-30T11:39:07.499Z,25.62
2022-07-30T11:40:06.726Z,25.85
2022-07-30T11:41:05.672Z,26.09
2022-07-30T11:42:05.676Z,26.22
2022-07-30T11:43:05.675Z,26.41
2022-07-30T11:44:05.655Z,26.47
2022-07-30T11:45:05.656Z,26.53
2022-07-30T11:46:05.631Z,26.66
2022-07-30T11:47:05.638Z,26.58
2022-07-30T11:48:05.619Z,26.52
2022-07-30T11:49:05.763Z,26.33
2022-07-30T11:50:05.609Z,26.48
2022-07-30T11:51:05.598Z,26.55
2022-07-30T11:52:05.596Z,26.60
2022-07-30T11:53:05.588Z,26.66
2022-07-30T11:54:05.577Z,26.84
2022-07-30T11:55:05.646Z,26.99
2022-07-30T11:56:05.559Z,26.95
2022-07-30T11:57:05.551Z,26.99
2022-07-30T11:58:05.548Z,27.02
2022-07-30T11:59:06.169Z,27.17
2022-07-30T12:00:05.530Z,27.25
2022-07-30T12:01:09.481Z,27.37
2022-07-30T12:02:05.871Z,27.48
2022-07-30T12:03:05.506Z,27.51
2022-07-30T12:04:05.542Z,27.45
2022-07-30T12:05:05.490Z,27.47
2022-07-30T12:06:05.481Z,27.35
2022-07-30T12:07:05.586Z,27.36
2022-07-30T12:08:05.469Z,27.21
2022-07-30T12:09:05.474Z,27.08
2022-07-30T12:10:05.464Z,26.65
2022-07-30T12:11:05.443Z,26.58
2022-07-30T12:12:06.270Z,26.36
2022-07-30T12:13:05.428Z,26.03
2022-07-30T12:14:05.426Z,26.02
2022-07-30T12:15:05.421Z,25.75
2022-07-30T12:16:05.405Z,25.44
2022-07-30T12:17:05.788Z,25.25
2022-07-30T12:18:25.298Z,24.98
2022-07-30T12:19:09.554Z,24.96
2022-07-30T12:20:07.169Z,24.84
2022-07-30T12:21:06.249Z,24.84
2022-07-30T12:22:05.419Z,24.78
2022-07-30T12:23:05.352Z,24.88
2022-07-30T12:24:05.351Z,25.18
2022-07-30T12:25:05.343Z,25.43
2022-07-30T12:26:05.330Z,25.58
2022-07-30T12:27:05.743Z,25.81
2022-07-30T12:28:06.175Z,25.84
2022-07-30T12:29:05.311Z,26.09
2022-07-30T12:30:05.325Z,26.36
2022-07-30T12:31:05.292Z,26.43
2022-07-30T12:32:05.301Z,26.58
2022-07-30T12:33:05.280Z,26.70
2022-07-30T12:34:05.275Z,26.96
2022-07-30T12:35:05.277Z,27.00
2022-07-30T12:36:05.269Z,26.68
2022-07-30T12:37:05.357Z,26.45
2022-07-30T12:38:05.249Z,26.43
2022-07-30T12:39:05.239Z,26.36
2022-07-30T12:40:05.232Z,26.38
2022-07-30T12:41:05.245Z,26.51
2022-07-30T12:42:05.209Z,26.52
2022-07-30T12:43:05.217Z,26.43
2022-07-30T12:44:06.198Z,26.41
2022-07-30T12:45:05.186Z,26.37
2022-07-30T12:46:05.176Z,26.29
2022-07-30T12:47:05.826Z,25.98
2022-07-30T12:48:05.166Z,25.87
2022-07-30T12:49:21.411Z,25.48
2022-07-30T12:50:06.200Z,25.35
2022-07-30T12:51:05.139Z,25.33
2022-07-30T12:52:05.136Z,25.11
2022-07-30T12:53:05.119Z,24.81
2022-07-30T12:54:05.117Z,24.33
2022-07-30T12:55:05.112Z,24.06